sensor_id;sensor_type;location;lat;lon;timestamp;pressure;altitude;pressure_sealevel;temperature
12854;BMP180;6495;51.808;7.478;2023-01-15T00:03:27;99324.00;;;8.30
12854;BMP180;6495;51.808;7.478;2023-01-15T00:07:15;99327.00;;;8.20
12854;BMP180;6495;51.808;7.478;2023-01-15T00:11:28;99329.00;;;8.10
12854;BMP180;6495;51.808;7.478;2023-01-15T00:15:09;99334.00;;;8.10
12854;BMP180;6495;51.808;7.478;2023-01-15T00:18:31;99338.00;;;8.00
12854;BMP180;6495;51.808;7.478;2023-01-15T00:21:50;99332.00;;;7.90
12854;BMP180;6495;51.808;7.478;2023-01-15T00:25:35;99294.00;;;7.90
12854;BMP180;6495;51.808;7.478;2023-01-15T00:30:44;99316.00;;;7.90
12854;BMP180;6495;51.808;7.478;2023-01-15T00:33:28;99325.00;;;7.80
12854;BMP180;6495;51.808;7.478;2023-01-15T00:37:28;99291.00;;;7.80
12854;BMP180;6495;51.808;7.478;2023-01-15T00:40:32;99305.00;;;7.70
12854;BMP180;6495;51.808;7.478;2023-01-15T00:43:58;99300.00;;;7.70
12854;BMP180;6495;51.808;7.478;2023-01-15T00:47:43;99284.00;;;7.70
12854;BMP180;6495;51.808;7.478;2023-01-15T00:54:59;99307.00;;;7.70
12854;BMP180;6495;51.808;7.478;2023-01-15T00:58:32;99313.00;;;7.70
12854;BMP180;6495;51.808;7.478;2023-01-15T01:01:37;99310.00;;;7.70
12854;BMP180;6495;51.808;7.478;2023-01-15T01:05:05;99309.00;;;7.70
12854;BMP180;6495;51.808;7.478;2023-01-15T01:08:30;99318.00;;;7.70
12854;BMP180;6495;51.808;7.478;2023-01-15T01:12:06;99291.00;;;7.60
12854;BMP180;6495;51.808;7.478;2023-01-15T01:15:34;99308.00;;;7.70
12854;BMP180;6495;51.808;7.478;2023-01-15T01:18:34;99295.00;;;7.70
12854;BMP180;6495;51.808;7.478;2023-01-15T01:22:02;99296.00;;;7.70
12854;BMP180;6495;51.808;7.478;2023-01-15T01:29:02;99309.00;;;7.70
12854;BMP180;6495;51.808;7.478;2023-01-15T01:32:37;99317.00;;;7.70
12854;BMP180;6495;51.808;7.478;2023-01-15T01:35:55;99331.00;;;7.70
12854;BMP180;6495;51.808;7.478;2023-01-15T01:39:41;99334.00;;;7.70
12854;BMP180;6495;51.808;7.478;2023-01-15T01:43:28;99336.00;;;7.70
12854;BMP180;6495;51.808;7.478;2023-01-15T01:47:02;99336.00;;;7.70
12854;BMP180;6495;51.808;7.478;2023-01-15T01:50:27;99339.00;;;7.70
12854;BMP180;6495;51.808;7.478;2023-01-15T01:53:44;99341.00;;;7.70
12854;BMP180;6495;51.808;7.478;2023-01-15T01:56:46;99338.00;;;7.70
12854;BMP180;6495;51.808;7.478;2023-01-15T02:00:27;99342.00;;;7.70
12854;BMP180;6495;51.808;7.478;2023-01-15T02:03:49;99338.00;;;7.60
12854;BMP180;6495;51.808;7.478;2023-01-15T02:07:04;99342.00;;;7.60
12854;BMP180;6495;51.808;7.478;2023-01-15T02:10:26;99342.00;;;7.60
12854;BMP180;6495;51.808;7.478;2023-01-15T02:13:49;99339.00;;;7.70
12854;BMP180;6495;51.808;7.478;2023-01-15T02:17:05;99348.00;;;7.60
12854;BMP180;6495;51.808;7.478;2023-01-15T02:24:12;99332.00;;;7.70
12854;BMP180;6495;51.808;7.478;2023-01-15T02:27:36;99351.00;;;7.60
12854;BMP180;6495;51.808;7.478;2023-01-15T02:31:04;99347.00;;;7.70
12854;BMP180;6495;51.808;7.478;2023-01-15T02:34:28;99330.00;;;7.60
12854;BMP180;6495;51.808;7.478;2023-01-15T02:37:58;99319.00;;;7.60
12854;BMP180;6495;51.808;7.478;2023-01-15T02:41:23;99333.00;;;7.60
12854;BMP180;6495;51.808;7.478;2023-01-15T02:44:54;99325.00;;;7.60
12854;BMP180;6495;51.808;7.478;2023-01-15T02:48:15;99322.00;;;7.60
12854;BMP180;6495;51.808;7.478;2023-01-15T02:51:22;99315.00;;;7.60
12854;BMP180;6495;51.808;7.478;2023-01-15T02:54:50;99314.00;;;7.60
12854;BMP180;6495;51.808;7.478;2023-01-15T02:58:00;99323.00;;;7.60
12854;BMP180;6495;51.808;7.478;2023-01-15T03:01:24;99308.00;;;7.60
12854;BMP180;6495;51.808;7.478;2023-01-15T03:04:32;99312.00;;;7.60
12854;BMP180;6495;51.808;7.478;2023-01-15T03:10:37;99309.00;;;7.60
12854;BMP180;6495;51.808;7.478;2023-01-15T03:12:22;99315.00;;;7.60
12854;BMP180;6495;51.808;7.478;2023-01-15T03:19:36;99313.00;;;7.60
12854;BMP180;6495;51.808;7.478;2023-01-15T03:22:47;99311.00;;;7.60
12854;BMP180;6495;51.808;7.478;2023-01-15T03:25:58;99294.00;;;7.60
12854;BMP180;6495;51.808;7.478;2023-01-15T03:29:05;99275.00;;;7.50
12854;BMP180;6495;51.808;7.478;2023-01-15T03:32:07;99272.00;;;7.50
12854;BMP180;6495;51.808;7.478;2023-01-15T03:35:51;99267.00;;;7.50
12854;BMP180;6495;51.808;7.478;2023-01-15T03:38:49;99276.00;;;7.50
12854;BMP180;6495;51.808;7.478;2023-01-15T03:42:08;99279.00;;;7.50
12854;BMP180;6495;51.808;7.478;2023-01-15T03:45:41;99277.00;;;7.50
12854;BMP180;6495;51.808;7.478;2023-01-15T03:49:05;99283.00;;;7.50
12854;BMP180;6495;51.808;7.478;2023-01-15T03:52:56;99272.00;;;7.50
12854;BMP180;6495;51.808;7.478;2023-01-15T03:56:32;99270.00;;;7.50
12854;BMP180;6495;51.808;7.478;2023-01-15T03:59:54;99282.00;;;7.40
12854;BMP180;6495;51.808;7.478;2023-01-15T04:03:05;99275.00;;;7.40
12854;BMP180;6495;51.808;7.478;2023-01-15T04:06:20;99273.00;;;7.50
12854;BMP180;6495;51.808;7.478;2023-01-15T04:09:49;99262.00;;;7.40
12854;BMP180;6495;51.808;7.478;2023-01-15T04:12:59;99274.00;;;7.50
12854;BMP180;6495;51.808;7.478;2023-01-15T04:16:00;99279.00;;;7.50
12854;BMP180;6495;51.808;7.478;2023-01-15T04:18:58;99279.00;;;7.50
12854;BMP180;6495;51.808;7.478;2023-01-15T04:21:57;99289.00;;;7.50
12854;BMP180;6495;51.808;7.478;2023-01-15T04:25:08;99283.00;;;7.50
12854;BMP180;6495;51.808;7.478;2023-01-15T04:28:19;99289.00;;;7.50
12854;BMP180;6495;51.808;7.478;2023-01-15T04:31:34;99284.00;;;7.50
12854;BMP180;6495;51.808;7.478;2023-01-15T04:34:57;99277.00;;;7.50
12854;BMP180;6495;51.808;7.478;2023-01-15T04:37:54;99290.00;;;7.50
12854;BMP180;6495;51.808;7.478;2023-01-15T04:40:51;99293.00;;;7.50
12854;BMP180;6495;51.808;7.478;2023-01-15T04:44:09;99288.00;;;7.40
12854;BMP180;6495;51.808;7.478;2023-01-15T04:47:19;99289.00;;;7.50
12854;BMP180;6495;51.808;7.478;2023-01-15T04:50:11;99314.00;;;7.50
12854;BMP180;6495;51.808;7.478;2023-01-15T04:53:16;99306.00;;;7.40
12854;BMP180;6495;51.808;7.478;2023-01-15T04:56:24;99304.00;;;7.40
12854;BMP180;6495;51.808;7.478;2023-01-15T04:59:41;99289.00;;;7.40
12854;BMP180;6495;51.808;7.478;2023-01-15T05:02:47;99284.00;;;7.30
12854;BMP180;6495;51.808;7.478;2023-01-15T05:05:44;99284.00;;;7.30
12854;BMP180;6495;51.808;7.478;2023-01-15T05:08:54;99294.00;;;7.40
12854;BMP180;6495;51.808;7.478;2023-01-15T05:11:52;99298.00;;;7.40
12854;BMP180;6495;51.808;7.478;2023-01-15T05:14:57;99299.00;;;7.40
12854;BMP180;6495;51.808;7.478;2023-01-15T05:17:49;99291.00;;;7.40
12854;BMP180;6495;51.808;7.478;2023-01-15T05:20:38;99295.00;;;7.40
12854;BMP180;6495;51.808;7.478;2023-01-15T05:23:28;99299.00;;;7.40
12854;BMP180;6495;51.808;7.478;2023-01-15T05:26:20;99304.00;;;7.40
12854;BMP180;6495;51.808;7.478;2023-01-15T05:29:10;99284.00;;;7.30
12854;BMP180;6495;51.808;7.478;2023-01-15T05:32:04;99289.00;;;7.40
12854;BMP180;6495;51.808;7.478;2023-01-15T05:34:54;99292.00;;;7.40
12854;BMP180;6495;51.808;7.478;2023-01-15T05:37:45;99299.00;;;7.30
12854;BMP180;6495;51.808;7.478;2023-01-15T05:40:32;99290.00;;;7.30
12854;BMP180;6495;51.808;7.478;2023-01-15T05:43:24;99287.00;;;7.30
12854;BMP180;6495;51.808;7.478;2023-01-15T05:46:23;99288.00;;;7.40
12854;BMP180;6495;51.808;7.478;2023-01-15T05:49:18;99280.00;;;7.40
12854;BMP180;6495;51.808;7.478;2023-01-15T05:52:15;99289.00;;;7.30
12854;BMP180;6495;51.808;7.478;2023-01-15T05:55:07;99294.00;;;7.30
12854;BMP180;6495;51.808;7.478;2023-01-15T05:57:58;99294.00;;;7.30
12854;BMP180;6495;51.808;7.478;2023-01-15T06:00:47;99296.00;;;7.30
12854;BMP180;6495;51.808;7.478;2023-01-15T06:03:45;99290.00;;;7.30
12854;BMP180;6495;51.808;7.478;2023-01-15T06:06:45;99297.00;;;7.30
12854;BMP180;6495;51.808;7.478;2023-01-15T06:09:40;99291.00;;;7.30
12854;BMP180;6495;51.808;7.478;2023-01-15T06:12:38;99290.00;;;7.30
12854;BMP180;6495;51.808;7.478;2023-01-15T06:15:33;99296.00;;;7.30
12854;BMP180;6495;51.808;7.478;2023-01-15T06:18:29;99288.00;;;7.30
12854;BMP180;6495;51.808;7.478;2023-01-15T06:21:26;99298.00;;;7.30
12854;BMP180;6495;51.808;7.478;2023-01-15T06:24:13;99294.00;;;7.30
12854;BMP180;6495;51.808;7.478;2023-01-15T06:27:07;99292.00;;;7.30
12854;BMP180;6495;51.808;7.478;2023-01-15T06:29:57;99298.00;;;7.30
12854;BMP180;6495;51.808;7.478;2023-01-15T06:32:55;99297.00;;;7.30
12854;BMP180;6495;51.808;7.478;2023-01-15T06:35:43;99287.00;;;7.30
12854;BMP180;6495;51.808;7.478;2023-01-15T06:38:36;99293.00;;;7.30
12854;BMP180;6495;51.808;7.478;2023-01-15T06:41:25;99294.00;;;7.30
12854;BMP180;6495;51.808;7.478;2023-01-15T06:44:32;99292.00;;;7.20
12854;BMP180;6495;51.808;7.478;2023-01-15T06:47:36;99304.00;;;7.30
12854;BMP180;6495;51.808;7.478;2023-01-15T06:50:26;99297.00;;;7.30
12854;BMP180;6495;51.808;7.478;2023-01-15T06:53:28;99313.00;;;7.30
12854;BMP180;6495;51.808;7.478;2023-01-15T06:56:17;99313.00;;;7.20
12854;BMP180;6495;51.808;7.478;2023-01-15T06:59:09;99312.00;;;7.20
12854;BMP180;6495;51.808;7.478;2023-01-15T07:02:00;99315.00;;;7.30
12854;BMP180;6495;51.808;7.478;2023-01-15T07:04:48;99311.00;;;7.30
12854;BMP180;6495;51.808;7.478;2023-01-15T07:07:42;99314.00;;;7.20
12854;BMP180;6495;51.808;7.478;2023-01-15T07:10:35;99307.00;;;7.20
12854;BMP180;6495;51.808;7.478;2023-01-15T07:13:36;99293.00;;;7.20
12854;BMP180;6495;51.808;7.478;2023-01-15T07:16:29;99306.00;;;7.20
12854;BMP180;6495;51.808;7.478;2023-01-15T07:19:21;99296.00;;;7.20
12854;BMP180;6495;51.808;7.478;2023-01-15T07:22:10;99310.00;;;7.20
12854;BMP180;6495;51.808;7.478;2023-01-15T07:25:03;99286.00;;;7.20
12854;BMP180;6495;51.808;7.478;2023-01-15T07:28:01;99287.00;;;7.20
12854;BMP180;6495;51.808;7.478;2023-01-15T07:30:58;99285.00;;;7.20
12854;BMP180;6495;51.808;7.478;2023-01-15T07:33:50;99304.00;;;7.20
12854;BMP180;6495;51.808;7.478;2023-01-15T07:36:45;99295.00;;;7.20
12854;BMP180;6495;51.808;7.478;2023-01-15T07:40:20;99300.00;;;7.20
12854;BMP180;6495;51.808;7.478;2023-01-15T07:43:42;99309.00;;;7.20
12854;BMP180;6495;51.808;7.478;2023-01-15T07:46:46;99307.00;;;7.20
12854;BMP180;6495;51.808;7.478;2023-01-15T07:49:51;99304.00;;;7.20
12854;BMP180;6495;51.808;7.478;2023-01-15T07:52:41;99314.00;;;7.20
12854;BMP180;6495;51.808;7.478;2023-01-15T07:55:28;99316.00;;;7.20
12854;BMP180;6495;51.808;7.478;2023-01-15T07:58:17;99310.00;;;7.20
12854;BMP180;6495;51.808;7.478;2023-01-15T08:01:06;99323.00;;;7.20
12854;BMP180;6495;51.808;7.478;2023-01-15T08:03:55;99319.00;;;7.20
12854;BMP180;6495;51.808;7.478;2023-01-15T08:06:42;99324.00;;;7.10
12854;BMP180;6495;51.808;7.478;2023-01-15T08:09:30;99339.00;;;7.00
12854;BMP180;6495;51.808;7.478;2023-01-15T08:12:20;99349.00;;;7.00
12854;BMP180;6495;51.808;7.478;2023-01-15T08:15:37;99340.00;;;7.00
12854;BMP180;6495;51.808;7.478;2023-01-15T08:18:27;99341.00;;;7.00
12854;BMP180;6495;51.808;7.478;2023-01-15T08:21:23;99343.00;;;6.90
12854;BMP180;6495;51.808;7.478;2023-01-15T08:24:25;99337.00;;;6.90
12854;BMP180;6495;51.808;7.478;2023-01-15T08:27:12;99344.00;;;6.90
12854;BMP180;6495;51.808;7.478;2023-01-15T08:30:36;99347.00;;;6.90
12854;BMP180;6495;51.808;7.478;2023-01-15T08:33:24;99359.00;;;6.90
12854;BMP180;6495;51.808;7.478;2023-01-15T08:36:18;99363.00;;;6.90
12854;BMP180;6495;51.808;7.478;2023-01-15T08:39:05;99358.00;;;6.90
12854;BMP180;6495;51.808;7.478;2023-01-15T08:41:55;99363.00;;;6.90
12854;BMP180;6495;51.808;7.478;2023-01-15T08:44:48;99346.00;;;6.90
12854;BMP180;6495;51.808;7.478;2023-01-15T08:47:45;99342.00;;;6.90
12854;BMP180;6495;51.808;7.478;2023-01-15T08:50:38;99345.00;;;6.90
12854;BMP180;6495;51.808;7.478;2023-01-15T08:53:28;99352.00;;;7.00
12854;BMP180;6495;51.808;7.478;2023-01-15T08:56:19;99354.00;;;7.00
12854;BMP180;6495;51.808;7.478;2023-01-15T08:59:11;99347.00;;;6.90
12854;BMP180;6495;51.808;7.478;2023-01-15T09:02:05;99345.00;;;6.90
12854;BMP180;6495;51.808;7.478;2023-01-15T09:05:00;99338.00;;;6.90
12854;BMP180;6495;51.808;7.478;2023-01-15T09:07:47;99340.00;;;6.90
12854;BMP180;6495;51.808;7.478;2023-01-15T09:10:35;99357.00;;;6.90
12854;BMP180;6495;51.808;7.478;2023-01-15T09:13:22;99351.00;;;6.90
12854;BMP180;6495;51.808;7.478;2023-01-15T09:16:11;99357.00;;;6.90
12854;BMP180;6495;51.808;7.478;2023-01-15T09:18:59;99361.00;;;6.90
12854;BMP180;6495;51.808;7.478;2023-01-15T09:21:47;99362.00;;;6.90
12854;BMP180;6495;51.808;7.478;2023-01-15T09:24:35;99346.00;;;6.90
12854;BMP180;6495;51.808;7.478;2023-01-15T09:27:23;99343.00;;;6.90
12854;BMP180;6495;51.808;7.478;2023-01-15T09:30:17;99364.00;;;6.90
12854;BMP180;6495;51.808;7.478;2023-01-15T09:33:11;99361.00;;;6.90
12854;BMP180;6495;51.808;7.478;2023-01-15T09:36:03;99364.00;;;7.00
12854;BMP180;6495;51.808;7.478;2023-01-15T09:38:58;99362.00;;;7.00
12854;BMP180;6495;51.808;7.478;2023-01-15T09:42:08;99349.00;;;7.10
12854;BMP180;6495;51.808;7.478;2023-01-15T09:45:17;99355.00;;;7.10
12854;BMP180;6495;51.808;7.478;2023-01-15T09:48:22;99357.00;;;7.20
12854;BMP180;6495;51.808;7.478;2023-01-15T09:51:25;99357.00;;;7.20
12854;BMP180;6495;51.808;7.478;2023-01-15T09:54:29;99382.00;;;7.30
12854;BMP180;6495;51.808;7.478;2023-01-15T09:57:31;99360.00;;;7.30
12854;BMP180;6495;51.808;7.478;2023-01-15T10:00:27;99362.00;;;7.40
12854;BMP180;6495;51.808;7.478;2023-01-15T10:03:30;99359.00;;;7.50
12854;BMP180;6495;51.808;7.478;2023-01-15T10:06:43;99364.00;;;7.50
12854;BMP180;6495;51.808;7.478;2023-01-15T10:09:38;99362.00;;;7.50
12854;BMP180;6495;51.808;7.478;2023-01-15T10:12:29;99373.00;;;7.70
12854;BMP180;6495;51.808;7.478;2023-01-15T10:15:35;99374.00;;;7.70
12854;BMP180;6495;51.808;7.478;2023-01-15T10:18:27;99371.00;;;7.70
12854;BMP180;6495;51.808;7.478;2023-01-15T10:21:29;99363.00;;;7.70
12854;BMP180;6495;51.808;7.478;2023-01-15T10:24:33;99369.00;;;7.70
12854;BMP180;6495;51.808;7.478;2023-01-15T10:27:27;99373.00;;;7.70
12854;BMP180;6495;51.808;7.478;2023-01-15T10:30:31;99376.00;;;7.70
12854;BMP180;6495;51.808;7.478;2023-01-15T10:33:59;99365.00;;;7.80
12854;BMP180;6495;51.808;7.478;2023-01-15T10:36:55;99358.00;;;7.80
12854;BMP180;6495;51.808;7.478;2023-01-15T10:39:57;99369.00;;;7.80
12854;BMP180;6495;51.808;7.478;2023-01-15T10:43:00;99363.00;;;7.70
12854;BMP180;6495;51.808;7.478;2023-01-15T10:49:36;99379.00;;;7.70
12854;BMP180;6495;51.808;7.478;2023-01-15T10:53:44;99364.00;;;7.80
12854;BMP180;6495;51.808;7.478;2023-01-15T10:58:05;99376.00;;;7.70
12854;BMP180;6495;51.808;7.478;2023-01-15T11:00:59;99392.00;;;7.70
12854;BMP180;6495;51.808;7.478;2023-01-15T11:03:48;99374.00;;;7.70
12854;BMP180;6495;51.808;7.478;2023-01-15T11:06:35;99374.00;;;7.70
12854;BMP180;6495;51.808;7.478;2023-01-15T11:09:24;99358.00;;;7.70
12854;BMP180;6495;51.808;7.478;2023-01-15T11:12:22;99372.00;;;7.80
12854;BMP180;6495;51.808;7.478;2023-01-15T11:15:27;99362.00;;;7.80
12854;BMP180;6495;51.808;7.478;2023-01-15T11:18:38;99382.00;;;7.80
12854;BMP180;6495;51.808;7.478;2023-01-15T11:21:43;99374.00;;;7.90
12854;BMP180;6495;51.808;7.478;2023-01-15T11:24:30;99365.00;;;7.90
12854;BMP180;6495;51.808;7.478;2023-01-15T11:27:21;99375.00;;;7.90
12854;BMP180;6495;51.808;7.478;2023-01-15T11:30:27;99383.00;;;7.90
12854;BMP180;6495;51.808;7.478;2023-01-15T11:33:22;99380.00;;;7.90
12854;BMP180;6495;51.808;7.478;2023-01-15T11:36:22;99383.00;;;7.80
12854;BMP180;6495;51.808;7.478;2023-01-15T11:39:23;99376.00;;;7.80
12854;BMP180;6495;51.808;7.478;2023-01-15T11:42:15;99365.00;;;7.80
12854;BMP180;6495;51.808;7.478;2023-01-15T11:45:23;99370.00;;;7.80
12854;BMP180;6495;51.808;7.478;2023-01-15T11:48:42;99376.00;;;7.70
12854;BMP180;6495;51.808;7.478;2023-01-15T11:51:48;99381.00;;;7.70
12854;BMP180;6495;51.808;7.478;2023-01-15T11:54:38;99348.00;;;7.70
12854;BMP180;6495;51.808;7.478;2023-01-15T11:57:30;99359.00;;;7.70
12854;BMP180;6495;51.808;7.478;2023-01-15T12:00:23;99353.00;;;7.80
12854;BMP180;6495;51.808;7.478;2023-01-15T12:03:16;99345.00;;;7.80
12854;BMP180;6495;51.808;7.478;2023-01-15T12:06:08;99354.00;;;7.80
12854;BMP180;6495;51.808;7.478;2023-01-15T12:09:05;99359.00;;;7.80
12854;BMP180;6495;51.808;7.478;2023-01-15T12:12:09;99365.00;;;7.80
12854;BMP180;6495;51.808;7.478;2023-01-15T12:15:28;99355.00;;;7.80
12854;BMP180;6495;51.808;7.478;2023-01-15T12:18:44;99364.00;;;7.80
12854;BMP180;6495;51.808;7.478;2023-01-15T12:21:59;99369.00;;;7.80
12854;BMP180;6495;51.808;7.478;2023-01-15T12:25:18;99363.00;;;7.80
12854;BMP180;6495;51.808;7.478;2023-01-15T12:28:13;99356.00;;;7.70
12854;BMP180;6495;51.808;7.478;2023-01-15T12:31:07;99376.00;;;7.70
12854;BMP180;6495;51.808;7.478;2023-01-15T12:34:02;99344.00;;;7.70
12854;BMP180;6495;51.808;7.478;2023-01-15T12:36:56;99362.00;;;7.70
12854;BMP180;6495;51.808;7.478;2023-01-15T12:39:48;99352.00;;;7.70
12854;BMP180;6495;51.808;7.478;2023-01-15T12:42:40;99338.00;;;7.80
12854;BMP180;6495;51.808;7.478;2023-01-15T12:45:51;99338.00;;;7.80
12854;BMP180;6495;51.808;7.478;2023-01-15T12:48:49;99337.00;;;7.80
12854;BMP180;6495;51.808;7.478;2023-01-15T12:51:49;99341.00;;;7.80
12854;BMP180;6495;51.808;7.478;2023-01-15T12:54:47;99331.00;;;7.80
12854;BMP180;6495;51.808;7.478;2023-01-15T12:57:39;99338.00;;;7.80
12854;BMP180;6495;51.808;7.478;2023-01-15T13:00:35;99327.00;;;7.80
12854;BMP180;6495;51.808;7.478;2023-01-15T13:03:29;99332.00;;;7.80
12854;BMP180;6495;51.808;7.478;2023-01-15T13:06:22;99340.00;;;7.80
12854;BMP180;6495;51.808;7.478;2023-01-15T13:09:36;99327.00;;;7.80
12854;BMP180;6495;51.808;7.478;2023-01-15T13:12:27;99325.00;;;7.80
12854;BMP180;6495;51.808;7.478;2023-01-15T13:15:21;99341.00;;;7.80
12854;BMP180;6495;51.808;7.478;2023-01-15T13:18:25;99334.00;;;7.80
12854;BMP180;6495;51.808;7.478;2023-01-15T13:21:20;99328.00;;;7.80
12854;BMP180;6495;51.808;7.478;2023-01-15T13:24:45;99337.00;;;7.80
12854;BMP180;6495;51.808;7.478;2023-01-15T13:27:51;99338.00;;;7.80
12854;BMP180;6495;51.808;7.478;2023-01-15T13:30:59;99331.00;;;7.80
12854;BMP180;6495;51.808;7.478;2023-01-15T13:33:55;99347.00;;;7.80
12854;BMP180;6495;51.808;7.478;2023-01-15T13:36:52;99337.00;;;7.80
12854;BMP180;6495;51.808;7.478;2023-01-15T13:39:48;99350.00;;;7.70
12854;BMP180;6495;51.808;7.478;2023-01-15T13:42:40;99347.00;;;7.70
12854;BMP180;6495;51.808;7.478;2023-01-15T13:45:36;99352.00;;;7.80
12854;BMP180;6495;51.808;7.478;2023-01-15T13:48:32;99353.00;;;7.80
12854;BMP180;6495;51.808;7.478;2023-01-15T13:51:32;99353.00;;;7.80
12854;BMP180;6495;51.808;7.478;2023-01-15T13:54:24;99356.00;;;7.70
12854;BMP180;6495;51.808;7.478;2023-01-15T13:57:32;99346.00;;;7.70
12854;BMP180;6495;51.808;7.478;2023-01-15T14:00:33;99353.00;;;7.70
12854;BMP180;6495;51.808;7.478;2023-01-15T14:03:27;99353.00;;;7.70
12854;BMP180;6495;51.808;7.478;2023-01-15T14:06:15;99356.00;;;7.70
12854;BMP180;6495;51.808;7.478;2023-01-15T14:09:02;99338.00;;;7.70
12854;BMP180;6495;51.808;7.478;2023-01-15T14:12:07;99351.00;;;7.70
12854;BMP180;6495;51.808;7.478;2023-01-15T14:15:25;99346.00;;;7.80
12854;BMP180;6495;51.808;7.478;2023-01-15T14:18:35;99377.00;;;7.70
12854;BMP180;6495;51.808;7.478;2023-01-15T14:21:40;99364.00;;;7.70
12854;BMP180;6495;51.808;7.478;2023-01-15T14:25:11;99367.00;;;7.70
12854;BMP180;6495;51.808;7.478;2023-01-15T14:28:33;99379.00;;;7.70
12854;BMP180;6495;51.808;7.478;2023-01-15T14:31:41;99384.00;;;7.70
12854;BMP180;6495;51.808;7.478;2023-01-15T14:34:35;99369.00;;;7.70
12854;BMP180;6495;51.808;7.478;2023-01-15T14:37:26;99385.00;;;7.70
12854;BMP180;6495;51.808;7.478;2023-01-15T14:40:21;99382.00;;;7.70
12854;BMP180;6495;51.808;7.478;2023-01-15T14:43:18;99398.00;;;7.60
12854;BMP180;6495;51.808;7.478;2023-01-15T14:46:25;99385.00;;;7.70
12854;BMP180;6495;51.808;7.478;2023-01-15T14:49:27;99394.00;;;7.70
12854;BMP180;6495;51.808;7.478;2023-01-15T14:52:21;99400.00;;;7.70
12854;BMP180;6495;51.808;7.478;2023-01-15T14:55:11;99403.00;;;7.60
12854;BMP180;6495;51.808;7.478;2023-01-15T14:58:03;99401.00;;;7.70
12854;BMP180;6495;51.808;7.478;2023-01-15T15:00:56;99392.00;;;7.70
12854;BMP180;6495;51.808;7.478;2023-01-15T15:03:51;99415.00;;;7.70
12854;BMP180;6495;51.808;7.478;2023-01-15T15:06:46;99401.00;;;7.60
12854;BMP180;6495;51.808;7.478;2023-01-15T15:09:39;99414.00;;;7.70
12854;BMP180;6495;51.808;7.478;2023-01-15T15:12:37;99395.00;;;7.70
12854;BMP180;6495;51.808;7.478;2023-01-15T15:15:40;99401.00;;;7.60
12854;BMP180;6495;51.808;7.478;2023-01-15T15:18:31;99397.00;;;7.60
12854;BMP180;6495;51.808;7.478;2023-01-15T15:21:24;99381.00;;;7.60
12854;BMP180;6495;51.808;7.478;2023-01-15T15:24:20;99411.00;;;7.60
12854;BMP180;6495;51.808;7.478;2023-01-15T15:27:14;99411.00;;;7.60
12854;BMP180;6495;51.808;7.478;2023-01-15T15:30:06;99402.00;;;7.60
12854;BMP180;6495;51.808;7.478;2023-01-15T15:32:54;99400.00;;;7.60
12854;BMP180;6495;51.808;7.478;2023-01-15T15:35:45;99387.00;;;7.60
12854;BMP180;6495;51.808;7.478;2023-01-15T15:38:32;99400.00;;;7.60
12854;BMP180;6495;51.808;7.478;2023-01-15T15:41:23;99412.00;;;7.60
12854;BMP180;6495;51.808;7.478;2023-01-15T15:44:34;99393.00;;;7.60
12854;BMP180;6495;51.808;7.478;2023-01-15T15:47:41;99396.00;;;7.50
12854;BMP180;6495;51.808;7.478;2023-01-15T15:50:47;99419.00;;;7.50
12854;BMP180;6495;51.808;7.478;2023-01-15T15:53:34;99401.00;;;7.50
12854;BMP180;6495;51.808;7.478;2023-01-15T15:56:21;99417.00;;;7.40
12854;BMP180;6495;51.808;7.478;2023-01-15T15:59:25;99440.00;;;7.40
12854;BMP180;6495;51.808;7.478;2023-01-15T16:02:20;99427.00;;;7.50
12854;BMP180;6495;51.808;7.478;2023-01-15T16:05:22;99424.00;;;7.50
12854;BMP180;6495;51.808;7.478;2023-01-15T16:08:17;99427.00;;;7.50
12854;BMP180;6495;51.808;7.478;2023-01-15T16:11:09;99420.00;;;7.40
12854;BMP180;6495;51.808;7.478;2023-01-15T16:14:00;99433.00;;;7.40
12854;BMP180;6495;51.808;7.478;2023-01-15T16:16:51;99436.00;;;7.40
12854;BMP180;6495;51.808;7.478;2023-01-15T16:19:42;99441.00;;;7.40
12854;BMP180;6495;51.808;7.478;2023-01-15T16:22:28;99437.00;;;7.50
12854;BMP180;6495;51.808;7.478;2023-01-15T16:25:22;99444.00;;;7.40
12854;BMP180;6495;51.808;7.478;2023-01-15T16:28:22;99444.00;;;7.50
12854;BMP180;6495;51.808;7.478;2023-01-15T16:31:13;99440.00;;;7.50
12854;BMP180;6495;51.808;7.478;2023-01-15T16:34:02;99450.00;;;7.50
12854;BMP180;6495;51.808;7.478;2023-01-15T16:36:50;99440.00;;;7.50
12854;BMP180;6495;51.808;7.478;2023-01-15T16:39:42;99455.00;;;7.40
12854;BMP180;6495;51.808;7.478;2023-01-15T16:42:34;99440.00;;;7.40
12854;BMP180;6495;51.808;7.478;2023-01-15T16:45:24;99441.00;;;7.40
12854;BMP180;6495;51.808;7.478;2023-01-15T16:48:25;99452.00;;;7.40
12854;BMP180;6495;51.808;7.478;2023-01-15T16:51:29;99457.00;;;7.40
12854;BMP180;6495;51.808;7.478;2023-01-15T16:54:44;99458.00;;;7.40
12854;BMP180;6495;51.808;7.478;2023-01-15T16:57:31;99464.00;;;7.30
12854;BMP180;6495;51.808;7.478;2023-01-15T17:00:28;99450.00;;;7.40
12854;BMP180;6495;51.808;7.478;2023-01-15T17:03:20;99444.00;;;7.30
12854;BMP180;6495;51.808;7.478;2023-01-15T17:06:11;99453.00;;;7.30
12854;BMP180;6495;51.808;7.478;2023-01-15T17:09:00;99446.00;;;7.30
12854;BMP180;6495;51.808;7.478;2023-01-15T17:11:51;99467.00;;;7.30
12854;BMP180;6495;51.808;7.478;2023-01-15T17:14:38;99462.00;;;7.30
12854;BMP180;6495;51.808;7.478;2023-01-15T17:17:27;99453.00;;;7.30
12854;BMP180;6495;51.808;7.478;2023-01-15T17:20:16;99456.00;;;7.20
12854;BMP180;6495;51.808;7.478;2023-01-15T17:23:10;99468.00;;;7.30
12854;BMP180;6495;51.808;7.478;2023-01-15T17:25:58;99468.00;;;7.20
12854;BMP180;6495;51.808;7.478;2023-01-15T17:28:46;99473.00;;;7.20
12854;BMP180;6495;51.808;7.478;2023-01-15T17:31:34;99461.00;;;7.20
12854;BMP180;6495;51.808;7.478;2023-01-15T17:34:20;99463.00;;;7.20
12854;BMP180;6495;51.808;7.478;2023-01-15T17:37:09;99476.00;;;7.20
12854;BMP180;6495;51.808;7.478;2023-01-15T17:39:56;99469.00;;;7.20
12854;BMP180;6495;51.808;7.478;2023-01-15T17:42:42;99468.00;;;7.20
12854;BMP180;6495;51.808;7.478;2023-01-15T17:45:32;99473.00;;;7.20
12854;BMP180;6495;51.808;7.478;2023-01-15T17:48:19;99474.00;;;7.20
12854;BMP180;6495;51.808;7.478;2023-01-15T17:51:11;99479.00;;;7.10
12854;BMP180;6495;51.808;7.478;2023-01-15T17:53:58;99478.00;;;7.10
12854;BMP180;6495;51.808;7.478;2023-01-15T17:56:45;99470.00;;;7.10
12854;BMP180;6495;51.808;7.478;2023-01-15T17:59:49;99480.00;;;7.10
12854;BMP180;6495;51.808;7.478;2023-01-15T18:02:55;99483.00;;;7.00
12854;BMP180;6495;51.808;7.478;2023-01-15T18:06:00;99480.00;;;7.00
12854;BMP180;6495;51.808;7.478;2023-01-15T18:08:52;99484.00;;;7.10
12854;BMP180;6495;51.808;7.478;2023-01-15T18:11:40;99486.00;;;7.00
12854;BMP180;6495;51.808;7.478;2023-01-15T18:14:27;99468.00;;;7.00
12854;BMP180;6495;51.808;7.478;2023-01-15T18:17:14;99477.00;;;7.00
12854;BMP180;6495;51.808;7.478;2023-01-15T18:20:03;99479.00;;;7.00
12854;BMP180;6495;51.808;7.478;2023-01-15T18:22:50;99473.00;;;7.00
12854;BMP180;6495;51.808;7.478;2023-01-15T18:25:37;99481.00;;;7.00